sensor_id;sensor_type;location;lat;lon;timestamp;temperature;humidity
79698;SHT31;69168;42.708;23.286;2024-03-29T00:00:56;13.19;50.43
79698;SHT31;69168;42.708;23.286;2024-03-29T00:03:22;13.00;50.71
79698;SHT31;69168;42.708;23.286;2024-03-29T00:05:47;13.05;50.91
79698;SHT31;69168;42.708;23.286;2024-03-29T00:08:13;13.08;50.79
79698;SHT31;69168;42.708;23.286;2024-03-29T00:10:38;13.14;50.62
79698;SHT31;69168;42.708;23.286;2024-03-29T00:13:04;13.29;50.32
79698;SHT31;69168;42.708;23.286;2024-03-29T00:15:33;13.36;50.69
79698;SHT31;69168;42.708;23.286;2024-03-29T00:17:58;13.26;50.54
79698;SHT31;69168;42.708;23.286;2024-03-29T00:20:24;13.30;50.17
79698;SHT31;69168;42.708;23.286;2024-03-29T00:22:49;13.18;50.50
79698;SHT31;69168;42.708;23.286;2024-03-29T00:25:15;13.01;51.18
79698;SHT31;69168;42.708;23.286;2024-03-29T00:27:41;13.10;50.92
79698;SHT31;69168;42.708;23.286;2024-03-29T00:30:07;13.08;50.43
79698;SHT31;69168;42.708;23.286;2024-03-29T00:32:33;12.94;50.84
79698;SHT31;69168;42.708;23.286;2024-03-29T00:34:58;12.91;50.85
79698;SHT31;69168;42.708;23.286;2024-03-29T00:37:24;12.95;50.74
79698;SHT31;69168;42.708;23.286;2024-03-29T00:39:50;12.95;50.52
79698;SHT31;69168;42.708;23.286;2024-03-29T00:42:16;12.88;50.67
79698;SHT31;69168;42.708;23.286;2024-03-29T00:44:44;12.73;51.09
79698;SHT31;69168;42.708;23.286;2024-03-29T00:47:10;12.91;50.64
79698;SHT31;69168;42.708;23.286;2024-03-29T00:49:36;12.94;50.43
79698;SHT31;69168;42.708;23.286;2024-03-29T00:52:02;12.91;50.59
79698;SHT31;69168;42.708;23.286;2024-03-29T00:54:28;12.94;50.36
79698;SHT31;69168;42.708;23.286;2024-03-29T00:56:54;12.80;50.26
79698;SHT31;69168;42.708;23.286;2024-03-29T00:59:19;12.93;49.94
79698;SHT31;69168;42.708;23.286;2024-03-29T01:01:45;12.97;49.86
79698;SHT31;69168;42.708;23.286;2024-03-29T01:04:11;12.95;49.92
79698;SHT31;69168;42.708;23.286;2024-03-29T01:06:38;13.04;49.67
79698;SHT31;69168;42.708;23.286;2024-03-29T01:09:04;12.90;50.08
79698;SHT31;69168;42.708;23.286;2024-03-29T01:11:30;12.91;49.91
79698;SHT31;69168;42.708;23.286;2024-03-29T01:13:56;12.90;49.80
79698;SHT31;69168;42.708;23.286;2024-03-29T01:16:22;13.00;49.54
79698;SHT31;69168;42.708;23.286;2024-03-29T01:18:47;13.01;49.65
79698;SHT31;69168;42.708;23.286;2024-03-29T01:21:13;12.98;49.61
79698;SHT31;69168;42.708;23.286;2024-03-29T01:23:39;12.95;49.66
79698;SHT31;69168;42.708;23.286;2024-03-29T01:26:05;13.07;49.54
79698;SHT31;69168;42.708;23.286;2024-03-29T01:28:31;13.11;49.33
79698;SHT31;69168;42.708;23.286;2024-03-29T01:30:56;13.04;49.55
79698;SHT31;69168;42.708;23.286;2024-03-29T01:33:24;13.01;49.56
79698;SHT31;69168;42.708;23.286;2024-03-29T01:35:49;13.04;49.59
79698;SHT31;69168;42.708;23.286;2024-03-29T01:38:15;13.08;49.46
79698;SHT31;69168;42.708;23.286;2024-03-29T01:40:40;12.98;49.66
79698;SHT31;69168;42.708;23.286;2024-03-29T01:43:06;12.95;49.73
79698;SHT31;69168;42.708;23.286;2024-03-29T01:45:35;12.97;49.81
79698;SHT31;69168;42.708;23.286;2024-03-29T01:48:03;12.90;50.10
79698;SHT31;69168;42.708;23.286;2024-03-29T01:50:29;12.87;50.14
79698;SHT31;69168;42.708;23.286;2024-03-29T01:52:55;12.84;50.44
79698;SHT31;69168;42.708;23.286;2024-03-29T01:55:20;12.87;50.36
79698;SHT31;69168;42.708;23.286;2024-03-29T01:57:46;12.90;50.30
79698;SHT31;69168;42.708;23.286;2024-03-29T02:00:12;12.84;50.52
79698;SHT31;69168;42.708;23.286;2024-03-29T02:02:37;12.90;50.37
79698;SHT31;69168;42.708;23.286;2024-03-29T02:05:03;12.97;50.33
79698;SHT31;69168;42.708;23.286;2024-03-29T02:07:30;12.85;50.85
79698;SHT31;69168;42.708;23.286;2024-03-29T02:09:55;12.93;50.68
79698;SHT31;69168;42.708;23.286;2024-03-29T02:12:21;12.88;50.68
79698;SHT31;69168;42.708;23.286;2024-03-29T02:14:46;12.83;51.07
79698;SHT31;69168;42.708;23.286;2024-03-29T02:17:12;12.83;50.92
79698;SHT31;69168;42.708;23.286;2024-03-29T02:19:37;13.01;50.41
79698;SHT31;69168;42.708;23.286;2024-03-29T02:22:03;12.87;50.88
79698;SHT31;69168;42.708;23.286;2024-03-29T02:24:31;12.76;51.24
79698;SHT31;69168;42.708;23.286;2024-03-29T02:26:57;12.91;50.94
79698;SHT31;69168;42.708;23.286;2024-03-29T02:29:23;12.85;51.33
79698;SHT31;69168;42.708;23.286;2024-03-29T02:31:49;12.73;51.65
79698;SHT31;69168;42.708;23.286;2024-03-29T02:34:15;13.05;50.66
79698;SHT31;69168;42.708;23.286;2024-03-29T02:36:40;13.01;50.75
79698;SHT31;69168;42.708;23.286;2024-03-29T02:39:09;13.00;50.89
79698;SHT31;69168;42.708;23.286;2024-03-29T02:41:35;13.01;50.90
79698;SHT31;69168;42.708;23.286;2024-03-29T02:44:00;13.01;50.79
79698;SHT31;69168;42.708;23.286;2024-03-29T02:46:26;12.93;51.13
79698;SHT31;69168;42.708;23.286;2024-03-29T02:48:51;12.85;51.28
79698;SHT31;69168;42.708;23.286;2024-03-29T02:51:17;12.97;51.23
79698;SHT31;69168;42.708;23.286;2024-03-29T02:53:42;12.74;51.98
79698;SHT31;69168;42.708;23.286;2024-03-29T02:56:08;12.67;51.93
79698;SHT31;69168;42.708;23.286;2024-03-29T02:58:36;12.67;52.07
79698;SHT31;69168;42.708;23.286;2024-03-29T03:01:09;12.46;52.69
79698;SHT31;69168;42.708;23.286;2024-03-29T03:03:35;12.29;53.12
79698;SHT31;69168;42.708;23.286;2024-03-29T03:06:01;12.39;53.13
79698;SHT31;69168;42.708;23.286;2024-03-29T03:08:27;12.08;53.76
79698;SHT31;69168;42.708;23.286;2024-03-29T03:11:11;12.12;53.73
79698;SHT31;69168;42.708;23.286;2024-03-29T03:13:37;12.09;53.96
79698;SHT31;69168;42.708;23.286;2024-03-29T03:16:02;11.95;54.14
79698;SHT31;69168;42.708;23.286;2024-03-29T03:18:28;11.94;54.16
79698;SHT31;69168;42.708;23.286;2024-03-29T03:20:54;12.02;54.11
79698;SHT31;69168;42.708;23.286;2024-03-29T03:23:21;11.91;54.22
79698;SHT31;69168;42.708;23.286;2024-03-29T03:25:53;11.66;54.71
79698;SHT31;69168;42.708;23.286;2024-03-29T03:28:19;11.74;54.84
79698;SHT31;69168;42.708;23.286;2024-03-29T03:30:45;11.63;55.29
79698;SHT31;69168;42.708;23.286;2024-03-29T03:33:10;11.59;55.21
79698;SHT31;69168;42.708;23.286;2024-03-29T03:35:36;11.67;55.25
79698;SHT31;69168;42.708;23.286;2024-03-29T03:38:01;11.62;55.28
79698;SHT31;69168;42.708;23.286;2024-03-29T03:40:27;11.75;55.08
79698;SHT31;69168;42.708;23.286;2024-03-29T03:42:52;11.66;55.24
79698;SHT31;69168;42.708;23.286;2024-03-29T03:45:18;11.59;55.37
79698;SHT31;69168;42.708;23.286;2024-03-29T03:47:44;11.57;55.69
79698;SHT31;69168;42.708;23.286;2024-03-29T03:50:09;11.67;55.29
79698;SHT31;69168;42.708;23.286;2024-03-29T03:52:35;11.73;55.23
79698;SHT31;69168;42.708;23.286;2024-03-29T03:55:00;11.90;54.98
79698;SHT31;69168;42.708;23.286;2024-03-29T03:57:26;11.98;54.62
79698;SHT31;69168;42.708;23.286;2024-03-29T03:59:51;12.18;53.75
79698;SHT31;69168;42.708;23.286;2024-03-29T04:02:17;12.14;53.76
79698;SHT31;69168;42.708;23.286;2024-03-29T04:04:43;11.80;54.79
79698;SHT31;69168;42.708;23.286;2024-03-29T04:07:11;11.66;54.95
79698;SHT31;69168;42.708;23.286;2024-03-29T04:09:37;11.49;55.19
79698;SHT31;69168;42.708;23.286;2024-03-29T04:12:03;11.28;55.93
79698;SHT31;69168;42.708;23.286;2024-03-29T04:14:28;11.30;55.97
79698;SHT31;69168;42.708;23.286;2024-03-29T04:16:54;11.43;55.87
79698;SHT31;69168;42.708;23.286;2024-03-29T04:19:19;11.42;55.95
79698;SHT31;69168;42.708;23.286;2024-03-29T04:21:45;11.57;55.67
79698;SHT31;69168;42.708;23.286;2024-03-29T04:24:10;11.63;55.23
79698;SHT31;69168;42.708;23.286;2024-03-29T04:26:36;11.43;55.99
79698;SHT31;69168;42.708;23.286;2024-03-29T04:29:02;11.47;55.95
79698;SHT31;69168;42.708;23.286;2024-03-29T04:31:28;11.46;55.82
79698;SHT31;69168;42.708;23.286;2024-03-29T04:33:53;11.44;56.03
79698;SHT31;69168;42.708;23.286;2024-03-29T04:36:19;11.70;54.89
79698;SHT31;69168;42.708;23.286;2024-03-29T04:38:44;11.66;55.17
79698;SHT31;69168;42.708;23.286;2024-03-29T04:41:10;11.66;55.07
79698;SHT31;69168;42.708;23.286;2024-03-29T04:43:35;11.62;55.60
79698;SHT31;69168;42.708;23.286;2024-03-29T04:46:08;11.71;55.11
79698;SHT31;69168;42.708;23.286;2024-03-29T04:48:35;11.78;55.09
79698;SHT31;69168;42.708;23.286;2024-03-29T04:51:01;11.78;54.93
79698;SHT31;69168;42.708;23.286;2024-03-29T04:53:26;11.81;55.19
79698;SHT31;69168;42.708;23.286;2024-03-29T04:55:58;11.77;54.89
79698;SHT31;69168;42.708;23.286;2024-03-29T04:58:27;11.97;54.56
79698;SHT31;69168;42.708;23.286;2024-03-29T05:00:54;12.02;54.38
79698;SHT31;69168;42.708;23.286;2024-03-29T05:03:23;12.05;54.63
79698;SHT31;69168;42.708;23.286;2024-03-29T05:05:52;12.04;54.86
79698;SHT31;69168;42.708;23.286;2024-03-29T05:08:18;12.17;54.56
79698;SHT31;69168;42.708;23.286;2024-03-29T05:10:45;12.24;54.56
79698;SHT31;69168;42.708;23.286;2024-03-29T05:13:10;12.30;54.55
79698;SHT31;69168;42.708;23.286;2024-03-29T05:15:36;12.39;54.11
79698;SHT31;69168;42.708;23.286;2024-03-29T05:18:02;12.45;54.10
79698;SHT31;69168;42.708;23.286;2024-03-29T05:20:29;12.47;54.08
79698;SHT31;69168;42.708;23.286;2024-03-29T05:22:55;12.57;53.87
79698;SHT31;69168;42.708;23.286;2024-03-29T05:25:21;12.61;54.06
79698;SHT31;69168;42.708;23.286;2024-03-29T05:27:46;12.64;54.35
79698;SHT31;69168;42.708;23.286;2024-03-29T05:30:15;12.68;54.15
79698;SHT31;69168;42.708;23.286;2024-03-29T05:32:41;12.76;53.88
79698;SHT31;69168;42.708;23.286;2024-03-29T05:35:07;12.80;53.68
79698;SHT31;69168;42.708;23.286;2024-03-29T05:37:35;12.85;53.64
79698;SHT31;69168;42.708;23.286;2024-03-29T05:40:00;12.87;53.57
79698;SHT31;69168;42.708;23.286;2024-03-29T05:42:31;12.91;53.86
79698;SHT31;69168;42.708;23.286;2024-03-29T05:44:57;12.95;53.62
79698;SHT31;69168;42.708;23.286;2024-03-29T05:47:22;12.97;53.85
79698;SHT31;69168;42.708;23.286;2024-03-29T05:49:49;13.02;53.56
79698;SHT31;69168;42.708;23.286;2024-03-29T05:52:15;13.05;53.31
79698;SHT31;69168;42.708;23.286;2024-03-29T05:54:41;13.10;53.64
79698;SHT31;69168;42.708;23.286;2024-03-29T05:57:07;13.12;53.73
79698;SHT31;69168;42.708;23.286;2024-03-29T05:59:34;13.05;53.63
79698;SHT31;69168;42.708;23.286;2024-03-29T06:01:59;13.11;53.84
79698;SHT31;69168;42.708;23.286;2024-03-29T06:04:25;13.22;53.51
79698;SHT31;69168;42.708;23.286;2024-03-29T06:06:56;13.32;53.29
79698;SHT31;69168;42.708;23.286;2024-03-29T06:09:23;13.46;52.73
79698;SHT31;69168;42.708;23.286;2024-03-29T06:11:48;13.56;52.65
79698;SHT31;69168;42.708;23.286;2024-03-29T06:14:14;13.56;52.81
79698;SHT31;69168;42.708;23.286;2024-03-29T06:16:58;13.85;51.60
79698;SHT31;69168;42.708;23.286;2024-03-29T06:19:42;13.95;51.29
79698;SHT31;69168;42.708;23.286;2024-03-29T06:22:07;13.95;51.32
79698;SHT31;69168;42.708;23.286;2024-03-29T06:24:34;14.08;50.51
79698;SHT31;69168;42.708;23.286;2024-03-29T06:27:00;14.21;49.72
79698;SHT31;69168;42.708;23.286;2024-03-29T06:29:26;14.33;49.45
79698;SHT31;69168;42.708;23.286;2024-03-29T06:31:51;14.42;48.56
79698;SHT31;69168;42.708;23.286;2024-03-29T06:34:17;14.50;48.65
79698;SHT31;69168;42.708;23.286;2024-03-29T06:36:42;14.49;48.42
79698;SHT31;69168;42.708;23.286;2024-03-29T06:39:08;14.50;48.60
79698;SHT31;69168;42.708;23.286;2024-03-29T06:41:34;14.52;48.66
79698;SHT31;69168;42.708;23.286;2024-03-29T06:43:59;14.63;48.69
79698;SHT31;69168;42.708;23.286;2024-03-29T06:46:25;14.73;48.14
79698;SHT31;69168;42.708;23.286;2024-03-29T06:48:51;14.77;48.85
79698;SHT31;69168;42.708;23.286;2024-03-29T06:51:16;14.70;49.28
79698;SHT31;69168;42.708;23.286;2024-03-29T06:53:42;14.79;49.44
79698;SHT31;69168;42.708;23.286;2024-03-29T06:56:07;14.80;49.14
79698;SHT31;69168;42.708;23.286;2024-03-29T06:58:33;14.90;48.90
79698;SHT31;69168;42.708;23.286;2024-03-29T07:00:58;14.91;49.11
79698;SHT31;69168;42.708;23.286;2024-03-29T07:03:24;14.90;48.78
79698;SHT31;69168;42.708;23.286;2024-03-29T07:05:49;14.94;48.37
79698;SHT31;69168;42.708;23.286;2024-03-29T07:08:16;14.95;48.20
79698;SHT31;69168;42.708;23.286;2024-03-29T07:10:42;14.94;47.91
79698;SHT31;69168;42.708;23.286;2024-03-29T07:13:07;15.01;48.15
79698;SHT31;69168;42.708;23.286;2024-03-29T07:15:33;15.03;48.03
79698;SHT31;69168;42.708;23.286;2024-03-29T07:18:00;15.07;47.98
79698;SHT31;69168;42.708;23.286;2024-03-29T07:20:26;15.14;47.26
79698;SHT31;69168;42.708;23.286;2024-03-29T07:22:52;15.21;47.52
79698;SHT31;69168;42.708;23.286;2024-03-29T07:25:18;15.35;47.25
79698;SHT31;69168;42.708;23.286;2024-03-29T07:27:43;15.36;47.25
79698;SHT31;69168;42.708;23.286;2024-03-29T07:30:09;15.31;47.49
79698;SHT31;69168;42.708;23.286;2024-03-29T07:32:36;15.36;47.67
79698;SHT31;69168;42.708;23.286;2024-03-29T07:35:02;15.48;47.77
79698;SHT31;69168;42.708;23.286;2024-03-29T07:37:28;15.46;48.09
79698;SHT31;69168;42.708;23.286;2024-03-29T07:39:54;15.48;48.32
79698;SHT31;69168;42.708;23.286;2024-03-29T07:42:19;15.59;48.01
79698;SHT31;69168;42.708;23.286;2024-03-29T07:44:45;15.58;48.30
79698;SHT31;69168;42.708;23.286;2024-03-29T07:47:10;15.62;49.48
79698;SHT31;69168;42.708;23.286;2024-03-29T07:49:38;15.80;46.72
79698;SHT31;69168;42.708;23.286;2024-03-29T07:52:04;15.77;46.48
79698;SHT31;69168;42.708;23.286;2024-03-29T07:54:32;16.00;46.90
79698;SHT31;69168;42.708;23.286;2024-03-29T07:56:57;15.94;46.77
79698;SHT31;69168;42.708;23.286;2024-03-29T07:59:25;15.91;46.73
79698;SHT31;69168;42.708;23.286;2024-03-29T08:01:51;15.97;46.74
79698;SHT31;69168;42.708;23.286;2024-03-29T08:04:17;16.05;46.77
79698;SHT31;69168;42.708;23.286;2024-03-29T08:06:43;16.07;46.36
79698;SHT31;69168;42.708;23.286;2024-03-29T08:09:09;16.05;46.47
79698;SHT31;69168;42.708;23.286;2024-03-29T08:11:35;16.10;46.44
79698;SHT31;69168;42.708;23.286;2024-03-29T08:14:00;16.17;46.70
79698;SHT31;69168;42.708;23.286;2024-03-29T08:16:27;16.29;46.66
79698;SHT31;69168;42.708;23.286;2024-03-29T08:18:53;16.36;46.25
79698;SHT31;69168;42.708;23.286;2024-03-29T08:21:18;16.42;45.99
79698;SHT31;69168;42.708;23.286;2024-03-29T08:23:44;16.56;45.57
79698;SHT31;69168;42.708;23.286;2024-03-29T08:26:14;16.51;45.46
79698;SHT31;69168;42.708;23.286;2024-03-29T08:28:39;16.51;45.93
79698;SHT31;69168;42.708;23.286;2024-03-29T08:31:06;16.65;45.34
79698;SHT31;69168;42.708;23.286;2024-03-29T08:33:34;16.70;45.27
79698;SHT31;69168;42.708;23.286;2024-03-29T08:36:04;16.75;45.54
79698;SHT31;69168;42.708;23.286;2024-03-29T08:38:29;16.76;45.68
79698;SHT31;69168;42.708;23.286;2024-03-29T08:40:55;17.00;44.56
79698;SHT31;69168;42.708;23.286;2024-03-29T08:43:20;17.02;44.35
79698;SHT31;69168;42.708;23.286;2024-03-29T08:45:49;17.13;44.70
79698;SHT31;69168;42.708;23.286;2024-03-29T08:48:14;17.15;44.67
79698;SHT31;69168;42.708;23.286;2024-03-29T08:50:40;17.18;44.92
79698;SHT31;69168;42.708;23.286;2024-03-29T08:53:06;17.10;44.64
79698;SHT31;69168;42.708;23.286;2024-03-29T08:55:33;17.15;44.62
79698;SHT31;69168;42.708;23.286;2024-03-29T08:57:59;17.39;43.70
79698;SHT31;69168;42.708;23.286;2024-03-29T09:00:28;17.49;42.48
79698;SHT31;69168;42.708;23.286;2024-03-29T09:02:54;17.49;42.92
79698;SHT31;69168;42.708;23.286;2024-03-29T09:05:21;17.55;41.59
79698;SHT31;69168;42.708;23.286;2024-03-29T09:07:50;17.43;42.40
79698;SHT31;69168;42.708;23.286;2024-03-29T09:10:16;17.34;42.35
79698;SHT31;69168;42.708;23.286;2024-03-29T09:12:42;17.51;42.32
79698;SHT31;69168;42.708;23.286;2024-03-29T09:15:08;17.46;40.59
79698;SHT31;69168;42.708;23.286;2024-03-29T09:17:43;17.65;40.05
79698;SHT31;69168;42.708;23.286;2024-03-29T09:20:09;17.69;40.51
79698;SHT31;69168;42.708;23.286;2024-03-29T09:22:35;17.76;40.77
79698;SHT31;69168;42.708;23.286;2024-03-29T09:25:01;17.75;40.34
79698;SHT31;69168;42.708;23.286;2024-03-29T09:27:27;17.87;41.62
79698;SHT31;69168;42.708;23.286;2024-03-29T09:29:55;17.85;42.77
79698;SHT31;69168;42.708;23.286;2024-03-29T09:32:21;17.85;43.18
79698;SHT31;69168;42.708;23.286;2024-03-29T09:34:48;18.01;39.62
79698;SHT31;69168;42.708;23.286;2024-03-29T09:37:13;18.11;39.22
79698;SHT31;69168;42.708;23.286;2024-03-29T09:39:39;18.18;38.81
79698;SHT31;69168;42.708;23.286;2024-03-29T09:42:06;18.15;39.61
79698;SHT31;69168;42.708;23.286;2024-03-29T09:44:33;18.25;40.38
79698;SHT31;69168;42.708;23.286;2024-03-29T09:47:04;18.41;40.29
79698;SHT31;69168;42.708;23.286;2024-03-29T09:49:32;18.52;37.76
79698;SHT31;69168;42.708;23.286;2024-03-29T09:52:00;18.55;38.08
79698;SHT31;69168;42.708;23.286;2024-03-29T09:54:28;18.70;38.95
79698;SHT31;69168;42.708;23.286;2024-03-29T09:56:57;18.82;40.48
79698;SHT31;69168;42.708;23.286;2024-03-29T09:59:24;19.04;38.86
79698;SHT31;69168;42.708;23.286;2024-03-29T10:01:50;18.97;38.05
79698;SHT31;69168;42.708;23.286;2024-03-29T10:04:21;18.93;38.49
79698;SHT31;69168;42.708;23.286;2024-03-29T10:06:48;19.00;38.69
79698;SHT31;69168;42.708;23.286;2024-03-29T10:09:17;19.04;38.92
79698;SHT31;69168;42.708;23.286;2024-03-29T10:11:43;19.21;39.25
79698;SHT31;69168;42.708;23.286;2024-03-29T10:14:09;19.39;39.25
79698;SHT31;69168;42.708;23.286;2024-03-29T10:16:35;19.44;39.84
79698;SHT31;69168;42.708;23.286;2024-03-29T10:19:00;19.59;40.32
79698;SHT31;69168;42.708;23.286;2024-03-29T10:21:26;19.80;40.15
79698;SHT31;69168;42.708;23.286;2024-03-29T10:23:54;19.90;40.17
79698;SHT31;69168;42.708;23.286;2024-03-29T10:26:20;20.10;39.67
79698;SHT31;69168;42.708;23.286;2024-03-29T10:28:46;20.27;39.54
79698;SHT31;69168;42.708;23.286;2024-03-29T10:31:12;20.45;39.91
79698;SHT31;69168;42.708;23.286;2024-03-29T10:33:42;20.64;38.49
79698;SHT31;69168;42.708;23.286;2024-03-29T10:36:08;20.75;38.40
79698;SHT31;69168;42.708;23.286;2024-03-29T10:38:35;20.83;38.22
79698;SHT31;69168;42.708;23.286;2024-03-29T10:41:01;21.02;37.23
79698;SHT31;69168;42.708;23.286;2024-03-29T10:43:28;21.03;37.30
79698;SHT31;69168;42.708;23.286;2024-03-29T10:45:55;21.26;36.41
79698;SHT31;69168;42.708;23.286;2024-03-29T10:48:25;21.30;37.62
79698;SHT31;69168;42.708;23.286;2024-03-29T10:50:55;21.47;37.54
79698;SHT31;69168;42.708;23.286;2024-03-29T10:53:27;21.54;37.36
79698;SHT31;69168;42.708;23.286;2024-03-29T10:56:07;21.72;38.00
79698;SHT31;69168;42.708;23.286;2024-03-29T10:58:38;21.88;37.03
79698;SHT31;69168;42.708;23.286;2024-03-29T11:01:06;22.03;36.19
79698;SHT31;69168;42.708;23.286;2024-03-29T11:03:50;22.12;36.78
79698;SHT31;69168;42.708;23.286;2024-03-29T11:06:23;22.09;35.80
79698;SHT31;69168;42.708;23.286;2024-03-29T11:08:52;22.29;36.14
79698;SHT31;69168;42.708;23.286;2024-03-29T11:11:20;22.54;36.13
79698;SHT31;69168;42.708;23.286;2024-03-29T11:14:01;22.69;35.91
79698;SHT31;69168;42.708;23.286;2024-03-29T11:16:28;22.84;35.26
79698;SHT31;69168;42.708;23.286;2024-03-29T11:18:53;22.94;34.57
79698;SHT31;69168;42.708;23.286;2024-03-29T11:21:19;23.12;35.13
79698;SHT31;69168;42.708;23.286;2024-03-29T11:23:49;23.40;35.29
79698;SHT31;69168;42.708;23.286;2024-03-29T11:26:16;23.61;34.82
79698;SHT31;69168;42.708;23.286;2024-03-29T11:28:50;23.24;33.72
79698;SHT31;69168;42.708;23.286;2024-03-29T11:31:16;23.27;34.16
79698;SHT31;69168;42.708;23.286;2024-03-29T11:36:14;23.67;34.39
79698;SHT31;69168;42.708;23.286;2024-03-29T11:38:41;23.73;33.79
79698;SHT31;69168;42.708;23.286;2024-03-29T11:41:18;24.01;34.48
79698;SHT31;69168;42.708;23.286;2024-03-29T11:43:44;24.30;34.29
79698;SHT31;69168;42.708;23.286;2024-03-29T11:46:14;24.52;35.09
79698;SHT31;69168;42.708;23.286;2024-03-29T11:48:40;24.74;34.13
79698;SHT31;69168;42.708;23.286;2024-03-29T11:51:07;25.02;33.09
79698;SHT31;69168;42.708;23.286;2024-03-29T11:53:37;25.18;32.69
79698;SHT31;69168;42.708;23.286;2024-03-29T11:56:03;25.09;32.10
79698;SHT31;69168;42.708;23.286;2024-03-29T11:58:29;25.25;32.64
79698;SHT31;69168;42.708;23.286;2024-03-29T12:00:56;25.49;32.75
79698;SHT31;69168;42.708;23.286;2024-03-29T12:03:25;25.69;31.52
79698;SHT31;69168;42.708;23.286;2024-03-29T12:05:52;25.95;32.42
79698;SHT31;69168;42.708;23.286;2024-03-29T12:08:20;26.31;29.83
79698;SHT31;69168;42.708;23.286;2024-03-29T12:10:46;26.14;29.93
79698;SHT31;69168;42.708;23.286;2024-03-29T12:13:11;26.06;29.86
79698;SHT31;69168;42.708;23.286;2024-03-29T12:15:37;26.47;30.42
79698;SHT31;69168;42.708;23.286;2024-03-29T12:18:04;26.26;29.50
79698;SHT31;69168;42.708;23.286;2024-03-29T12:20:36;26.67;29.87
79698;SHT31;69168;42.708;23.286;2024-03-29T12:23:08;26.97;28.08
79698;SHT31;69168;42.708;23.286;2024-03-29T12:25:36;27.21;28.76
79698;SHT31;69168;42.708;23.286;2024-03-29T12:28:02;27.42;28.37
79698;SHT31;69168;42.708;23.286;2024-03-29T12:30:27;27.70;28.36
79698;SHT31;69168;42.708;23.286;2024-03-29T12:33:00;27.46;26.31
79698;SHT31;69168;42.708;23.286;2024-03-29T12:35:27;27.80;26.73
79698;SHT31;69168;42.708;23.286;2024-03-29T12:37:54;27.56;27.04
79698;SHT31;69168;42.708;23.286;2024-03-29T12:40:21;27.89;27.56
79698;SHT31;69168;42.708;23.286;2024-03-29T12:42:50;27.92;27.10
79698;SHT31;69168;42.708;23.286;2024-03-29T12:45:18;27.59;25.89
79698;SHT31;69168;42.708;23.286;2024-03-29T12:47:47;27.74;27.38
79698;SHT31;69168;42.708;23.286;2024-03-29T12:50:23;28.08;26.82
79698;SHT31;69168;42.708;23.286;2024-03-29T12:52:49;28.38;26.69
79698;SHT31;69168;42.708;23.286;2024-03-29T12:55:15;28.73;27.21
79698;SHT31;69168;42.708;23.286;2024-03-29T12:57:43;28.94;26.35
79698;SHT31;69168;42.708;23.286;2024-03-29T13:00:12;29.00;26.10
79698;SHT31;69168;42.708;23.286;2024-03-29T13:02:38;29.38;25.79
79698;SHT31;69168;42.708;23.286;2024-03-29T13:05:04;29.54;26.26
79698;SHT31;69168;42.708;23.286;2024-03-29T13:07:30;30.06;25.09
79698;SHT31;69168;42.708;23.286;2024-03-29T13:09:55;30.00;23.86
79698;SHT31;69168;42.708;23.286;2024-03-29T13:12:21;29.85;23.72
79698;SHT31;69168;42.708;23.286;2024-03-29T13:14:47;29.55;22.81
79698;SHT31;69168;42.708;23.286;2024-03-29T13:17:12;28.93;22.33
79698;SHT31;69168;42.708;23.286;2024-03-29T13:19:38;27.76;23.13
79698;SHT31;69168;42.708;23.286;2024-03-29T13:22:04;27.63;22.90
79698;SHT31;69168;42.708;23.286;2024-03-29T13:24:32;27.05;24.12
79698;SHT31;69168;42.708;23.286;2024-03-29T13:26:57;27.01;24.18
79698;SHT31;69168;42.708;23.286;2024-03-29T13:29:23;27.00;24.59
79698;SHT31;69168;42.708;23.286;2024-03-29T13:31:48;27.05;22.51
79698;SHT31;69168;42.708;23.286;2024-03-29T13:34:14;27.01;22.67
79698;SHT31;69168;42.708;23.286;2024-03-29T13:36:42;27.48;23.03
79698;SHT31;69168;42.708;23.286;2024-03-29T13:39:07;27.49;22.50
79698;SHT31;69168;42.708;23.286;2024-03-29T13:41:39;27.74;22.66
79698;SHT31;69168;42.708;23.286;2024-03-29T13:44:06;28.14;22.42
79698;SHT31;69168;42.708;23.286;2024-03-29T13:46:35;28.27;22.78
79698;SHT31;69168;42.708;23.286;2024-03-29T13:49:01;27.70;22.43
79698;SHT31;69168;42.708;23.286;2024-03-29T13:51:28;27.77;22.75
79698;SHT31;69168;42.708;23.286;2024-03-29T13:53:54;27.98;22.05
79698;SHT31;69168;42.708;23.286;2024-03-29T13:56:20;28.10;22.27
79698;SHT31;69168;42.708;23.286;2024-03-29T13:58:46;28.14;21.71
79698;SHT31;69168;42.708;23.286;2024-03-29T14:01:12;27.74;21.69
79698;SHT31;69168;42.708;23.286;2024-03-29T14:03:38;27.77;22.48
79698;SHT31;69168;42.708;23.286;2024-03-29T14:06:04;27.38;21.95
79698;SHT31;69168;42.708;23.286;2024-03-29T14:08:31;27.89;22.48
79698;SHT31;69168;42.708;23.286;2024-03-29T14:10:57;28.35;21.41
79698;SHT31;69168;42.708;23.286;2024-03-29T14:13:23;28.77;21.08
79698;SHT31;69168;42.708;23.286;2024-03-29T14:15:49;28.73;21.21
79698;SHT31;69168;42.708;23.286;2024-03-29T14:18:14;29.10;21.81
79698;SHT31;69168;42.708;23.286;2024-03-29T14:20:40;29.32;21.05
79698;SHT31;69168;42.708;23.286;2024-03-29T14:23:05;29.28;21.29
79698;SHT31;69168;42.708;23.286;2024-03-29T14:25:32;29.49;20.94
79698;SHT31;69168;42.708;23.286;2024-03-29T14:27:57;29.59;20.86
79698;SHT31;69168;42.708;23.286;2024-03-29T14:30:25;30.06;20.78
79698;SHT31;69168;42.708;23.286;2024-03-29T14:32:51;29.68;20.48
79698;SHT31;69168;42.708;23.286;2024-03-29T14:35:17;29.58;20.46
79698;SHT31;69168;42.708;23.286;2024-03-29T14:37:46;28.34;21.17
79698;SHT31;69168;42.708;23.286;2024-03-29T14:40:12;28.27;21.49
79698;SHT31;69168;42.708;23.286;2024-03-29T14:42:41;28.05;21.81
79698;SHT31;69168;42.708;23.286;2024-03-29T14:45:07;27.92;21.56
79698;SHT31;69168;42.708;23.286;2024-03-29T14:47:33;28.37;21.63
79698;SHT31;69168;42.708;23.286;2024-03-29T14:50:01;28.35;21.63
79698;SHT31;69168;42.708;23.286;2024-03-29T14:52:30;28.04;21.81
79698;SHT31;69168;42.708;23.286;2024-03-29T14:54:56;28.63;21.47
79698;SHT31;69168;42.708;23.286;2024-03-29T14:57:21;29.24;21.67
79698;SHT31;69168;42.708;23.286;2024-03-29T14:59:51;29.79;21.40
79698;SHT31;69168;42.708;23.286;2024-03-29T15:02:16;30.20;21.16
79698;SHT31;69168;42.708;23.286;2024-03-29T15:04:42;30.48;22.09
79698;SHT31;69168;42.708;23.286;2024-03-29T15:07:08;30.87;21.23
79698;SHT31;69168;42.708;23.286;2024-03-29T15:09:34;30.85;21.90
79698;SHT31;69168;42.708;23.286;2024-03-29T15:12:02;30.75;22.17
79698;SHT31;69168;42.708;23.286;2024-03-29T15:14:30;31.02;22.97